Time;durP1;ratioP1;P1;durP2;ratioP2;P2;SDS_P1;SDS_P2;PMS_P1;PMS_P2;Temp;Humidity;BMP_temperature;BMP_pressure;BME280_temperature;BME280_humidity;BME280_pressure;Samples;Min_cycle;Max_cycle;Signal;HPM_P1;HPM_P2
2021/05/20 00:02:14;;;;;;;67.45;7.95;;;7.20;98.10;;;;;;4973964;28;20046;-83
2021/05/20 00:04:42;;;;;;;79.28;7.57;;;7.10;98.00;;;;;;4961999;28;20034;-84
2021/05/20 00:07:08;;;;;;;32.63;4.88;;;7.10;98.00;;;;;;4978418;28;20042;-84
2021/05/20 00:09:34;;;;;;;20.13;5.45;;;7.00;98.00;;;;;;4976309;28;20400;-83
2021/05/20 00:11:59;;;;;;;47.28;5.78;;;7.00;98.00;;;;;;4977298;28;20030;-83
2021/05/20 00:14:27;;;;;;;44.60;6.57;;;6.90;98.00;;;;;;4966472;28;20039;-83
2021/05/20 00:16:54;;;;;;;51.40;6.82;;;6.80;98.00;;;;;;4984019;28;20064;-84
2021/05/20 00:19:21;;;;;;;31.10;5.07;;;6.80;98.00;;;;;;4979930;28;20042;-83
2021/05/20 00:21:47;;;;;;;61.38;6.07;;;6.80;98.10;;;;;;4978429;28;20603;-86
2021/05/20 00:24:13;;;;;;;35.47;5.57;;;6.70;98.10;;;;;;4962397;28;20729;-85
2021/05/20 00:26:39;;;;;;;80.15;7.82;;;6.70;98.10;;;;;;4988760;28;20042;-84
2021/05/20 00:29:05;;;;;;;38.30;5.75;;;6.60;98.10;;;;;;4966316;28;20303;-86
2021/05/20 00:31:31;;;;;;;44.95;6.53;;;6.60;98.10;;;;;;4967725;28;20042;-85
2021/05/20 00:33:57;;;;;;;24.35;4.30;;;6.60;98.20;;;;;;4982564;28;20512;-84
2021/05/20 00:36:22;;;;;;;14.50;4.50;;;6.60;98.10;;;;;;4969257;28;20477;-87
2021/05/20 00:38:48;;;;;;;12.20;4.22;;;6.50;98.10;;;;;;4951594;28;20397;-85
2021/05/20 00:41:14;;;;;;;12.32;3.88;;;6.50;98.10;;;;;;4981295;28;20062;-86
2021/05/20 00:43:40;;;;;;;17.13;4.55;;;6.50;98.20;;;;;;4968792;28;20042;-83
2021/05/20 00:46:07;;;;;;;11.60;4.28;;;6.50;98.20;;;;;;4953210;28;20034;-83
2021/05/20 00:48:33;;;;;;;5.60;4.68;;;6.40;98.20;;;;;;4967595;28;20052;-86
2021/05/20 00:50:59;;;;;;;5.60;4.50;;;6.40;98.30;;;;;;4978673;28;20058;-84
2021/05/20 00:53:25;;;;;;;6.00;4.78;;;6.40;98.40;;;;;;4977491;28;20073;-85
2021/05/20 00:55:52;;;;;;;6.45;4.70;;;6.40;98.30;;;;;;4972062;28;20053;-83
2021/05/20 00:58:20;;;;;;;5.35;4.85;;;6.30;98.30;;;;;;4966868;28;20069;-83
2021/05/20 01:00:48;;;;;;;5.35;4.85;;;6.30;98.30;;;;;;4964630;28;20031;-86
2021/05/20 01:03:14;;;;;;;11.60;6.65;;;6.30;98.40;;;;;;4972522;28;20048;-84
2021/05/20 01:05:40;;;;;;;23.65;7.07;;;6.30;98.40;;;;;;4951848;28;20048;-86
2021/05/20 01:08:06;;;;;;;12.38;6.40;;;6.30;98.40;;;;;;4980762;28;20038;-84
2021/05/20 01:10:32;;;;;;;98.70;7.47;;;6.30;98.40;;;;;;4969039;28;20042;-84
2021/05/20 01:12:58;;;;;;;62.47;6.60;;;6.20;98.40;;;;;;4984920;28;20038;-85
2021/05/20 01:15:29;;;;;;;46.58;5.88;;;6.20;98.30;;;;;;4962398;28;20251;-84
2021/05/20 01:17:57;;;;;;;53.10;7.50;;;6.20;98.40;;;;;;4968770;28;20575;-86
2021/05/20 01:20:32;;;;;;;55.67;7.38;;;6.10;98.30;;;;;;4979218;28;20038;-86
2021/05/20 01:23:03;;;;;;;33.45;6.82;;;6.10;98.40;;;;;;4995697;28;20146;-85
2021/05/20 01:25:29;;;;;;;39.58;6.45;;;6.00;98.40;;;;;;4975938;28;20122;-87
2021/05/20 01:28:02;;;;;;;65.22;7.45;;;6.00;98.40;;;;;;4968871;28;20552;-84
2021/05/20 01:30:29;;;;;;;64.72;7.07;;;6.00;98.40;;;;;;4978579;28;20047;-83
2021/05/20 01:32:55;;;;;;;46.55;6.00;;;6.00;98.40;;;;;;4964697;28;20049;-82
2021/05/20 01:35:21;;;;;;;45.50;7.57;;;5.90;98.40;;;;;;4960529;28;20030;-83
2021/05/20 01:37:47;;;;;;;31.88;7.38;;;5.80;98.40;;;;;;4968714;28;20485;-84
2021/05/20 01:40:13;;;;;;;29.27;7.82;;;5.80;98.50;;;;;;4952500;28;20060;-83
2021/05/20 01:42:40;;;;;;;48.10;7.40;;;5.80;98.60;;;;;;4933207;28;20051;-83
2021/05/20 01:45:07;;;;;;;19.65;6.55;;;5.80;98.60;;;;;;4962502;28;20057;-83
2021/05/20 01:47:33;;;;;;;24.92;6.88;;;5.80;98.60;;;;;;4947458;28;20051;-82
2021/05/20 01:49:59;;;;;;;25.20;6.75;;;5.80;98.60;;;;;;4963220;28;20044;-83
2021/05/20 01:52:25;;;;;;;55.55;6.97;;;5.70;98.60;;;;;;4949500;28;20054;-86
2021/05/20 01:54:50;;;;;;;34.67;7.03;;;5.70;98.60;;;;;;4958422;28;20129;-82
2021/05/20 01:57:16;;;;;;;44.15;7.22;;;5.70;98.60;;;;;;4949108;28;20465;-83
2021/05/20 01:59:43;;;;;;;36.00;7.80;;;5.70;98.70;;;;;;4965415;28;20038;-83
2021/05/20 02:02:09;;;;;;;39.67;6.35;;;5.70;98.70;;;;;;4961363;28;20061;-82
2021/05/20 02:04:35;;;;;;;36.35;8.48;;;5.60;98.70;;;;;;4965168;28;20062;-83
2021/05/20 02:07:01;;;;;;;25.58;8.05;;;5.60;98.70;;;;;;4978261;28;20053;-82
2021/05/20 02:09:26;;;;;;;34.38;7.80;;;5.60;98.80;;;;;;4955080;28;20860;-83
2021/05/20 02:11:52;;;;;;;48.90;7.68;;;5.60;98.80;;;;;;4958931;28;20031;-86
2021/05/20 02:14:18;;;;;;;67.15;8.40;;;5.60;98.80;;;;;;4979833;28;20062;-87
2021/05/20 02:16:44;;;;;;;34.85;7.75;;;5.60;98.80;;;;;;4967725;28;20065;-85
2021/05/20 02:19:11;;;;;;;52.95;7.13;;;5.60;98.80;;;;;;4972679;28;20033;-83
2021/05/20 02:21:37;;;;;;;21.60;6.10;;;5.50;98.80;;;;;;4975256;28;20437;-83
2021/05/20 02:24:04;;;;;;;24.38;6.88;;;5.50;98.80;;;;;;4949015;28;20042;-82
2021/05/20 02:26:29;;;;;;;28.27;7.47;;;5.50;98.80;;;;;;4982193;28;20034;-84
2021/05/20 02:28:55;;;;;;;19.30;6.60;;;5.50;98.80;;;;;;4949880;28;20034;-83
2021/05/20 02:31:21;;;;;;;15.65;7.32;;;5.40;98.80;;;;;;4961969;28;20038;-86
2021/05/20 02:33:47;;;;;;;8.93;7.63;;;5.50;98.90;;;;;;4945042;28;20115;-82
2021/05/20 02:36:13;;;;;;;9.98;7.93;;;5.50;98.90;;;;;;4965832;28;20092;-82
2021/05/20 02:38:38;;;;;;;8.98;6.38;;;5.40;98.90;;;;;;4957456;28;20038;-82
2021/05/20 02:41:04;;;;;;;8.90;6.70;;;5.40;98.80;;;;;;4963471;28;20141;-82
2021/05/20 02:43:32;;;;;;;12.55;8.52;;;5.40;98.80;;;;;;4964605;28;20053;-82
2021/05/20 02:46:01;;;;;;;11.32;6.88;;;5.40;98.90;;;;;;4960429;28;20046;-85
2021/05/20 02:48:27;;;;;;;10.60;8.32;;;5.30;98.90;;;;;;4975068;28;20819;-83
2021/05/20 02:50:53;;;;;;;9.85;8.85;;;5.30;98.90;;;;;;4933568;28;20078;-82
2021/05/20 02:53:19;;;;;;;9.98;8.75;;;5.30;98.90;;;;;;4977429;28;20457;-84
2021/05/20 02:55:45;;;;;;;9.70;7.18;;;5.30;98.90;;;;;;4979280;28;20512;-86
2021/05/20 02:58:14;;;;;;;7.10;6.38;;;5.20;98.80;;;;;;4947320;28;20047;-86
2021/05/20 03:00:40;;;;;;;7.47;6.78;;;5.20;98.80;;;;;;4965869;28;20626;-83
2021/05/20 03:03:06;;;;;;;9.40;8.35;;;5.20;98.90;;;;;;4976913;28;20114;-85
2021/05/20 03:05:32;;;;;;;21.02;9.30;;;5.20;98.90;;;;;;4963429;28;20556;-83
2021/05/20 03:07:58;;;;;;;13.20;8.38;;;5.20;99.00;;;;;;4966983;28;20044;-83
2021/05/20 03:10:25;;;;;;;10.05;8.32;;;5.20;99.00;;;;;;4980495;28;20042;-83
2021/05/20 03:12:51;;;;;;;9.68;8.48;;;5.20;99.00;;;;;;4979008;28;20121;-83
2021/05/20 03:15:17;;;;;;;10.05;7.20;;;5.20;99.00;;;;;;4976718;28;20133;-83
2021/05/20 03:17:42;;;;;;;10.85;9.20;;;5.20;99.00;;;;;;4966860;28;20046;-83
2021/05/20 03:20:10;;;;;;;10.35;8.48;;;5.20;99.00;;;;;;4963039;28;20052;-83
2021/05/20 03:22:37;;;;;;;10.23;8.13;;;5.10;99.00;;;;;;4979203;28;20038;-83
2021/05/20 03:25:03;;;;;;;12.30;7.10;;;5.10;98.90;;;;;;4971027;28;20049;-83
2021/05/20 03:27:29;;;;;;;8.27;7.45;;;5.10;98.90;;;;;;4965095;28;20121;-82
2021/05/20 03:29:54;;;;;;;8.52;7.70;;;5.10;98.90;;;;;;4979515;28;20149;-83
2021/05/20 03:32:20;;;;;;;7.90;7.10;;;5.00;98.90;;;;;;4962997;28;20039;-83
2021/05/20 03:34:46;;;;;;;8.82;7.93;;;5.00;98.90;;;;;;4978412;28;20116;-83
2021/05/20 03:37:12;;;;;;;10.95;8.70;;;5.00;98.90;;;;;;4953671;28;20113;-83
2021/05/20 03:39:38;;;;;;;11.38;9.93;;;5.00;98.90;;;;;;4964886;28;20090;-83
2021/05/20 03:42:04;;;;;;;12.02;10.45;;;5.00;99.00;;;;;;4982616;28;20052;-83
2021/05/20 03:44:30;;;;;;;15.48;9.88;;;5.00;99.00;;;;;;4983392;28;20045;-83
2021/05/20 03:46:57;;;;;;;26.13;12.55;;;5.00;99.00;;;;;;4981865;28;20038;-83
2021/05/20 03:49:23;;;;;;;24.48;13.93;;;5.00;99.00;;;;;;4981508;28;20560;-83
2021/05/20 03:51:48;;;;;;;18.77;14.13;;;5.10;99.10;;;;;;4980916;28;20162;-83
2021/05/20 03:54:14;;;;;;;23.00;14.40;;;5.10;99.20;;;;;;4977729;28;20137;-83
2021/05/20 03:56:40;;;;;;;20.02;13.02;;;5.10;99.20;;;;;;4962724;28;20034;-84
2021/05/20 03:59:06;;;;;;;14.48;12.05;;;5.10;99.20;;;;;;4975701;28;20041;-83
2021/05/20 04:01:33;;;;;;;11.88;9.68;;;5.10;99.20;;;;;;4948952;28;20564;-83
2021/05/20 04:03:59;;;;;;;14.43;10.13;;;5.20;99.20;;;;;;4986484;28;20129;-83
2021/05/20 04:06:25;;;;;;;13.32;10.48;;;5.20;99.20;;;;;;4968487;28;20042;-83
2021/05/20 04:08:50;;;;;;;16.83;12.65;;;5.20;99.20;;;;;;4957950;28;20031;-82
2021/05/20 04:11:16;;;;;;;15.07;11.93;;;5.20;99.30;;;;;;4966832;28;20035;-83
2021/05/20 04:13:43;;;;;;;24.02;13.80;;;5.20;99.70;;;;;;4979970;28;20038;-84
2021/05/20 04:16:12;;;;;;;54.33;24.13;;;5.30;99.40;;;;;;4974751;28;20389;-83
2021/05/20 04:18:38;;;;;;;58.42;26.33;;;5.40;99.50;;;;;;4975882;28;20400;-83
2021/05/20 04:21:05;;;;;;;70.78;24.45;;;5.50;99.60;;;;;;4968072;28;20034;-83
2021/05/20 04:23:31;;;;;;;75.47;29.02;;;5.60;99.70;;;;;;4981461;28;20484;-83
2021/05/20 04:25:57;;;;;;;113.30;33.65;;;5.60;99.70;;;;;;4980217;28;20034;-83
2021/05/20 04:28:23;;;;;;;53.72;27.70;;;5.70;99.70;;;;;;4950718;28;20041;-83
2021/05/20 04:30:49;;;;;;;76.75;30.15;;;5.80;99.80;;;;;;4967189;28;20047;-84
2021/05/20 04:33:15;;;;;;;81.15;29.67;;;5.80;99.80;;;;;;4990318;28;20022;-84
2021/05/20 04:35:41;;;;;;;70.55;31.67;;;5.90;99.90;;;;;;4975724;28;20359;-83
2021/05/20 04:38:08;;;;;;;55.78;28.15;;;6.00;99.90;;;;;;4967294;28;20077;-83
2021/05/20 04:40:35;;;;;;;65.05;30.40;;;6.00;99.90;;;;;;4967928;28;20035;-83
2021/05/20 04:43:01;;;;;;;54.17;29.48;;;6.10;99.90;;;;;;4960182;28;20065;-83
2021/05/20 04:45:27;;;;;;;46.63;28.90;;;6.20;99.90;;;;;;4948705;28;20034;-83
2021/05/20 04:47:53;;;;;;;58.17;31.98;;;6.20;99.90;;;;;;4983639;28;20047;-83
2021/05/20 04:50:19;;;;;;;46.85;28.17;;;6.40;99.90;;;;;;4984885;28;20046;-83
2021/05/20 04:52:46;;;;;;;61.78;34.13;;;6.50;99.90;;;;;;4958668;28;20504;-83
2021/05/20 04:55:14;;;;;;;52.28;31.73;;;6.50;99.90;;;;;;4964649;28;20055;-83
2021/05/20 04:57:40;;;;;;;52.42;29.55;;;6.60;99.90;;;;;;4978791;28;20061;-83
2021/05/20 05:00:08;;;;;;;56.55;28.42;;;6.70;99.90;;;;;;4976717;28;20050;-83
2021/05/20 05:02:34;;;;;;;44.35;27.40;;;6.70;99.90;;;;;;4978185;28;20060;-83
2021/05/20 05:05:00;;;;;;;63.97;31.60;;;6.80;99.90;;;;;;4976543;28;20034;-84
2021/05/20 05:07:26;;;;;;;45.05;27.75;;;6.90;99.90;;;;;;4976404;28;20034;-83
2021/05/20 05:09:52;;;;;;;46.70;30.23;;;6.90;99.90;;;;;;4977608;28;20030;-83
2021/05/20 05:12:17;;;;;;;49.20;32.13;;;6.90;99.90;;;;;;4930874;28;20595;-83
2021/05/20 05:14:43;;;;;;;55.58;33.88;;;7.00;99.90;;;;;;4945926;28;20125;-83
2021/05/20 05:17:09;;;;;;;65.00;34.70;;;7.10;99.90;;;;;;4945277;28;20125;-84
2021/05/20 05:19:35;;;;;;;73.72;39.10;;;7.20;99.90;;;;;;4975660;28;20046;-84
2021/05/20 05:22:02;;;;;;;90.90;46.78;;;7.30;99.90;;;;;;4979712;28;20046;-83
2021/05/20 05:24:32;;;;;;;96.18;49.67;;;7.50;99.90;;;;;;4978689;28;20035;-83
2021/05/20 05:26:59;;;;;;;103.38;50.03;;;7.70;99.90;;;;;;4979880;28;20038;-83
2021/05/20 05:29:26;;;;;;;69.78;39.35;;;7.80;99.90;;;;;;4963135;28;20038;-83
2021/05/20 05:31:51;;;;;;;88.18;45.90;;;8.00;99.90;;;;;;4979415;28;20111;-83
2021/05/20 05:34:18;;;;;;;67.72;39.90;;;8.00;99.90;;;;;;4974984;28;20054;-84
2021/05/20 05:36:47;;;;;;;66.20;39.42;;;8.20;99.90;;;;;;4981807;28;20546;-84
2021/05/20 05:39:13;;;;;;;93.30;46.75;;;8.20;99.90;;;;;;4971780;28;20037;-82
2021/05/20 05:41:40;;;;;;;83.72;45.97;;;8.40;99.90;;;;;;4969753;28;20037;-84
2021/05/20 05:44:06;;;;;;;82.10;46.25;;;8.40;99.90;;;;;;4955945;28;20451;-83
2021/05/20 05:46:32;;;;;;;94.40;47.42;;;8.50;99.90;;;;;;4968138;28;20052;-84
2021/05/20 05:49:11;;;;;;;91.03;47.00;;;8.70;99.90;;;;;;4971220;28;20492;-84
2021/05/20 05:51:38;;;;;;;98.38;49.40;;;8.80;99.90;;;;;;4986349;28;20097;-84
2021/05/20 05:54:04;;;;;;;83.63;44.35;;;8.80;99.90;;;;;;4960460;28;20046;-84
2021/05/20 05:56:30;;;;;;;81.38;44.83;;;8.90;99.90;;;;;;4983357;28;20034;-84
2021/05/20 05:58:56;;;;;;;86.60;45.65;;;8.90;99.90;;;;;;4967738;28;20092;-85
2021/05/20 06:01:22;;;;;;;109.85;48.63;;;8.90;99.90;;;;;;4953391;28;20049;-84
2021/05/20 06:03:48;;;;;;;91.85;46.67;;;9.00;99.90;;;;;;4957322;28;20042;-84
2021/05/20 06:06:14;;;;;;;85.65;44.70;;;9.00;99.90;;;;;;4952632;28;20413;-84
2021/05/20 06:08:40;;;;;;;85.93;45.00;;;9.10;99.90;;;;;;4982614;28;20057;-84
2021/05/20 06:11:06;;;;;;;93.07;45.25;;;9.20;99.90;;;;;;4972014;28;20038;-84
2021/05/20 06:13:31;;;;;;;95.25;47.40;;;9.20;99.90;;;;;;4958622;28;20050;-84
2021/05/20 06:15:57;;;;;;;107.75;49.92;;;9.30;99.90;;;;;;4981142;28;20889;-83
2021/05/20 06:18:23;;;;;;;80.47;46.28;;;9.30;99.90;;;;;;4963382;28;20776;-86
2021/05/20 06:20:50;;;;;;;69.75;40.90;;;9.30;99.90;;;;;;4981509;28;20042;-86
2021/05/20 06:23:16;;;;;;;85.38;46.15;;;9.40;99.90;;;;;;4952535;28;20030;-84
2021/05/20 06:25:45;;;;;;;82.45;47.47;;;9.50;99.90;;;;;;4966653;28;20046;-84
2021/05/20 06:28:10;;;;;;;86.97;46.30;;;9.50;99.90;;;;;;4964963;28;20042;-83
2021/05/20 06:30:37;;;;;;;93.93;46.42;;;9.60;99.90;;;;;;4976200;28;20042;-83
2021/05/20 06:33:03;;;;;;;90.38;44.08;;;9.60;99.90;;;;;;4977246;28;20037;-83
2021/05/20 06:35:29;;;;;;;103.97;45.30;;;9.60;99.90;;;;;;4962992;28;20070;-84
2021/05/20 06:37:54;;;;;;;99.63;45.15;;;9.60;99.90;;;;;;4968169;28;20531;-85
2021/05/20 06:40:20;;;;;;;104.63;45.28;;;9.60;99.90;;;;;;4966373;28;20054;-84
2021/05/20 06:42:46;;;;;;;92.13;45.83;;;9.60;99.90;;;;;;4961531;28;20054;-83
2021/05/20 06:45:13;;;;;;;95.90;48.58;;;9.60;99.90;;;;;;4972695;28;20128;-84
2021/05/20 06:47:39;;;;;;;66.03;40.97;;;9.60;99.90;;;;;;4975404;28;20030;-84
2021/05/20 06:50:05;;;;;;;70.57;42.55;;;9.70;99.90;;;;;;4968721;28;20053;-84
2021/05/20 06:52:32;;;;;;;69.78;41.83;;;9.80;99.90;;;;;;4957992;28;20035;-83
2021/05/20 06:54:57;;;;;;;64.78;40.83;;;9.80;99.90;;;;;;4955921;28;20042;-84
2021/05/20 06:57:29;;;;;;;54.40;37.22;;;9.90;99.90;;;;;;4986648;28;20515;-83
2021/05/20 06:59:58;;;;;;;59.83;39.92;;;9.90;99.90;;;;;;4969452;28;20085;-84
2021/05/20 07:02:29;;;;;;;58.28;38.75;;;9.90;99.90;;;;;;4959786;28;20145;-84
2021/05/20 07:04:57;;;;;;;54.60;36.10;;;10.00;99.90;;;;;;4960904;28;20164;-84
2021/05/20 07:07:24;;;;;;;58.50;37.67;;;10.10;99.90;;;;;;4975558;28;20551;-85
2021/05/20 07:09:50;;;;;;;55.80;37.13;;;10.10;99.90;;;;;;4975443;28;20429;-84
2021/05/20 07:12:18;;;;;;;54.08;37.05;;;10.20;99.90;;;;;;4998924;28;20035;-83
2021/05/20 07:14:44;;;;;;;48.33;34.83;;;10.20;99.90;;;;;;4984742;28;20497;-85
2021/05/20 07:17:11;;;;;;;57.22;36.92;;;10.30;99.90;;;;;;4962080;28;20034;-84
2021/05/20 07:19:38;;;;;;;44.40;32.72;;;10.40;99.90;;;;;;4979198;28;20031;-84
2021/05/20 07:22:04;;;;;;;50.30;34.15;;;10.50;99.90;;;;;;4963929;28;20038;-83
2021/05/20 07:24:31;;;;;;;41.85;30.23;;;10.50;99.80;;;;;;4981784;28;20031;-85
2021/05/20 07:26:58;;;;;;;45.10;30.67;;;10.60;99.80;;;;;;4970015;28;20611;-88
2021/05/20 07:29:23;;;;;;;41.97;30.60;;;10.60;99.70;;;;;;4982302;28;20041;-84
2021/05/20 07:31:50;;;;;;;40.85;31.25;;;10.70;99.60;;;;;;4949149;28;20044;-84
2021/05/20 07:34:16;;;;;;;38.03;25.90;;;10.70;99.60;;;;;;4986402;28;20061;-86
2021/05/20 07:36:42;;;;;;;38.65;26.80;;;10.90;99.60;;;;;;4961314;28;20084;-85
2021/05/20 07:39:09;;;;;;;29.15;22.30;;;10.90;99.40;;;;;;4960708;28;20038;-85
2021/05/20 07:41:35;;;;;;;32.83;24.83;;;11.10;99.30;;;;;;4960880;28;20109;-85
2021/05/20 07:44:03;;;;;;;33.97;23.85;;;11.10;99.10;;;;;;4983511;28;20129;-84
2021/05/20 07:46:29;;;;;;;29.42;22.25;;;11.10;99.00;;;;;;4976891;28;20058;-84
2021/05/20 07:48:55;;;;;;;26.20;19.95;;;11.20;98.90;;;;;;4965361;28;20038;-84
2021/05/20 07:51:21;;;;;;;24.17;18.92;;;11.30;98.80;;;;;;4949999;28;20112;-86
2021/05/20 07:53:47;;;;;;;21.63;16.17;;;11.40;98.70;;;;;;4963799;28;20056;-85
2021/05/20 07:56:13;;;;;;;20.92;17.35;;;11.50;98.50;;;;;;4945950;28;20058;-87
2021/05/20 07:58:39;;;;;;;19.52;14.50;;;11.60;98.20;;;;;;4961339;28;20097;-85
2021/05/20 08:01:05;;;;;;;16.15;12.88;;;11.60;97.80;;;;;;4967734;28;20246;-86
2021/05/20 08:06:09;;;;;;;16.77;13.77;;;12.00;97.30;;;;;;4983937;28;20066;-87
2021/05/20 08:11:14;;;;;;;17.55;12.88;;;12.10;96.50;;;;;;4984043;28;20042;-84
2021/05/20 08:13:40;;;;;;;18.58;11.93;;;12.00;96.30;;;;;;4980171;28;20038;-87
2021/05/20 08:16:06;;;;;;;19.15;14.65;;;12.00;96.30;;;;;;4974155;28;20041;-85
2021/05/20 08:18:32;;;;;;;23.98;18.20;;;12.00;96.30;;;;;;4965189;28;20034;-85
2021/05/20 08:20:59;;;;;;;23.05;19.65;;;12.10;96.40;;;;;;4965140;28;20034;-86
2021/05/20 08:23:25;;;;;;;16.40;11.85;;;12.30;96.50;;;;;;4962983;28;20830;-85
2021/05/20 08:25:51;;;;;;;19.35;14.25;;;12.40;96.30;;;;;;4949775;28;20105;-85
2021/05/20 08:28:17;;;;;;;19.70;14.25;;;12.50;95.90;;;;;;4978738;28;20091;-85
2021/05/20 08:30:44;;;;;;;20.85;15.95;;;12.60;95.70;;;;;;4966942;28;20564;-86
2021/05/20 08:33:10;;;;;;;14.52;12.38;;;12.60;95.70;;;;;;4968703;28;20070;-86
2021/05/20 08:35:37;;;;;;;17.40;12.35;;;12.60;95.40;;;;;;4979744;28;20042;-85
2021/05/20 08:38:03;;;;;;;10.15;7.82;;;12.70;95.20;;;;;;4983577;28;20508;-85
2021/05/20 08:40:30;;;;;;;13.50;8.13;;;12.80;94.60;;;;;;4979938;28;20034;-85
2021/05/20 08:42:56;;;;;;;15.93;10.32;;;12.90;94.10;;;;;;4968756;28;20073;-85
2021/05/20 08:45:24;;;;;;;15.40;11.02;;;12.90;94.00;;;;;;4955547;28;20043;-86
2021/05/20 08:47:52;;;;;;;12.40;10.32;;;12.90;93.80;;;;;;4983630;28;20042;-85
2021/05/20 08:50:22;;;;;;;14.18;10.75;;;13.00;93.90;;;;;;4967643;28;20104;-86
2021/05/20 08:52:48;;;;;;;13.57;10.50;;;13.00;93.70;;;;;;4981467;28;20035;-86
2021/05/20 08:55:16;;;;;;;15.32;12.00;;;12.90;93.70;;;;;;4975653;28;20516;-86
2021/05/20 08:57:42;;;;;;;16.08;12.52;;;13.00;93.70;;;;;;4980891;28;20035;-85
2021/05/20 09:00:20;;;;;;;12.88;10.75;;;13.00;93.90;;;;;;4977290;28;20049;-83
2021/05/20 09:02:46;;;;;;;13.73;10.95;;;13.10;93.80;;;;;;4979001;28;20042;-82
2021/05/20 09:05:17;;;;;;;14.50;12.57;;;13.10;93.90;;;;;;4969710;28;20034;-82
2021/05/20 09:08:00;;;;;;;13.30;11.60;;;13.10;93.70;;;;;;4985111;28;20065;-83
2021/05/20 09:10:29;;;;;;;17.08;12.02;;;13.00;93.50;;;;;;4967226;28;20048;-83
2021/05/20 09:13:12;;;;;;;13.55;10.90;;;12.90;93.60;;;;;;4986852;28;20066;-82
2021/05/20 09:15:52;;;;;;;14.90;10.70;;;12.80;93.40;;;;;;4985562;28;20038;-84
2021/05/20 09:18:23;;;;;;;18.75;16.20;;;12.70;93.50;;;;;;4980867;28;20043;-84
2021/05/20 09:20:58;;;;;;;19.95;16.63;;;12.70;93.80;;;;;;4982233;28;20045;-83
2021/05/20 09:23:26;;;;;;;18.40;16.30;;;12.70;93.80;;;;;;4976812;28;20097;-83
2021/05/20 09:26:02;;;;;;;23.90;17.00;;;12.70;93.90;;;;;;4975939;28;20576;-84
2021/05/20 09:28:48;;;;;;;18.75;14.32;;;12.70;93.90;;;;;;4977853;28;20460;-83
2021/05/20 09:31:16;;;;;;;12.00;8.90;;;12.70;93.40;;;;;;4964185;28;20849;-82
2021/05/20 09:33:52;;;;;;;14.13;11.23;;;12.80;93.30;;;;;;4971367;28;20066;-84
2021/05/20 09:36:23;;;;;;;14.00;12.07;;;12.90;92.90;;;;;;4979627;28;20433;-86
2021/05/20 09:38:49;;;;;;;12.70;11.07;;;13.00;92.90;;;;;;4983279;28;20057;-84
2021/05/20 09:41:19;;;;;;;14.23;11.13;;;13.20;92.70;;;;;;4932480;28;20047;-84
2021/05/20 09:43:46;;;;;;;14.25;9.18;;;13.30;92.70;;;;;;4950565;28;20133;-85
2021/05/20 09:46:14;;;;;;;10.13;8.10;;;13.40;92.60;;;;;;4936416;28;20038;-84
2021/05/20 09:48:44;;;;;;;11.20;8.50;;;13.50;92.30;;;;;;4982762;28;20045;-83
2021/05/20 09:51:43;;;;;;;13.63;10.93;;;13.60;92.00;;;;;;4976588;28;20054;-85
2021/05/20 09:54:09;;;;;;;12.80;11.27;;;13.50;91.50;;;;;;4950706;28;20085;-83
2021/05/20 09:56:43;;;;;;;12.70;7.78;;;13.50;92.30;;;;;;4968508;28;20562;-83
2021/05/20 09:59:13;;;;;;;4.97;4.32;;;13.60;91.80;;;;;;4979423;28;20035;-83
2021/05/20 10:01:40;;;;;;;6.47;4.80;;;13.80;91.30;;;;;;4976446;28;20745;-83
2021/05/20 10:04:09;;;;;;;9.10;6.18;;;13.90;91.00;;;;;;4969448;28;20038;-85
2021/05/20 10:06:39;;;;;;;11.68;7.95;;;13.90;90.60;;;;;;4970722;28;20106;-85
2021/05/20 10:09:09;;;;;;;13.30;7.60;;;13.90;90.60;;;;;;4974137;28;20045;-85
2021/05/20 10:11:36;;;;;;;10.50;7.82;;;13.80;90.50;;;;;;4989067;28;20054;-85
2021/05/20 10:14:04;;;;;;;8.88;7.40;;;13.70;90.40;;;;;;4985021;28;20031;-84
2021/05/20 10:16:32;;;;;;;7.85;5.50;;;13.50;90.50;;;;;;4984176;28;20642;-83
2021/05/20 10:18:58;;;;;;;7.63;5.80;;;13.50;90.40;;;;;;4970622;28;20040;-84
2021/05/20 10:21:28;;;;;;;9.52;6.18;;;13.60;90.70;;;;;;4995358;28;20037;-84
2021/05/20 10:23:54;;;;;;;8.15;5.07;;;13.80;90.60;;;;;;4984856;28;20125;-82
2021/05/20 10:26:21;;;;;;;8.57;4.10;;;13.90;90.50;;;;;;4974549;28;20046;-89
2021/05/20 10:28:47;;;;;;;7.20;4.13;;;14.10;90.30;;;;;;4984165;28;20034;-86
2021/05/20 10:31:14;;;;;;;8.73;6.45;;;14.40;89.90;;;;;;4972746;28;20050;-85
2021/05/20 10:33:43;;;;;;;9.55;5.68;;;14.60;88.90;;;;;;4975146;28;20034;-83
2021/05/20 10:36:22;;;;;;;7.93;4.03;;;14.70;88.40;;;;;;4985844;28;20061;-85
2021/05/20 10:38:48;;;;;;;7.40;4.60;;;14.70;84.60;;;;;;4979878;28;20093;-84
2021/05/20 10:41:17;;;;;;;11.27;4.40;;;14.70;87.10;;;;;;4981932;28;20057;-83
2021/05/20 10:43:44;;;;;;;5.95;4.28;;;14.60;86.50;;;;;;4980284;28;20046;-84
2021/05/20 10:46:13;;;;;;;7.22;4.38;;;14.60;86.60;;;;;;4986037;28;20038;-84
2021/05/20 10:48:55;;;;;;;5.13;4.28;;;14.60;86.60;;;;;;4981247;28;20045;-84
2021/05/20 10:51:35;;;;;;;6.53;2.70;;;14.70;85.10;;;;;;4983143;28;20231;-84
2021/05/20 10:54:05;;;;;;;3.17;2.10;;;14.70;85.40;;;;;;4961975;28;20096;-86
2021/05/20 10:56:34;;;;;;;6.25;4.35;;;14.60;85.70;;;;;;4979401;28;20031;-84
2021/05/20 10:59:01;;;;;;;8.43;6.72;;;14.70;85.60;;;;;;4978191;28;20038;-86
2021/05/20 11:01:29;;;;;;;8.75;6.70;;;14.80;86.20;;;;;;4970704;28;20065;-83
2021/05/20 11:04:03;;;;;;;10.57;7.00;;;14.90;86.80;;;;;;4984239;28;20485;-83
2021/05/20 11:06:35;;;;;;;9.07;6.90;;;14.90;85.40;;;;;;4971169;28;20122;-84
2021/05/20 11:09:02;;;;;;;10.63;8.27;;;14.80;84.80;;;;;;4984439;28;20441;-84
2021/05/20 11:11:32;;;;;;;9.15;6.15;;;14.70;86.20;;;;;;4986690;28;20057;-86
2021/05/20 11:14:19;;;;;;;9.75;7.90;;;14.60;85.10;;;;;;4984112;28;20090;-85
2021/05/20 11:16:49;;;;;;;11.82;8.23;;;14.60;85.30;;;;;;4950486;28;20839;-84
2021/05/20 11:19:28;;;;;;;11.52;7.70;;;14.70;86.00;;;;;;5004979;28;20042;-86
2021/05/20 11:24:33;;;;;;;13.20;7.57;;;15.20;83.40;;;;;;4984219;28;20105;-83
2021/05/20 11:27:01;;;;;;;7.40;5.72;;;15.20;83.70;;;;;;4980778;28;20168;-85
2021/05/20 11:29:35;;;;;;;9.38;8.18;;;15.20;81.70;;;;;;4990121;28;20031;-87
2021/05/20 11:32:53;;;;;;;12.70;9.50;;;15.20;80.00;;;;;;4987546;28;20042;-87
2021/05/20 11:35:36;;;;;;;14.98;11.02;;;15.20;79.80;;;;;;4988804;28;20101;-88
2021/05/20 11:38:02;;;;;;;13.65;11.07;;;15.20;80.90;;;;;;4956008;28;20054;-87
2021/05/20 11:40:30;;;;;;;12.82;10.48;;;15.30;82.20;;;;;;4964193;28;20039;-85
2021/05/20 11:42:56;;;;;;;8.60;4.60;;;15.50;80.50;;;;;;4986655;28;20088;-85
2021/05/20 11:45:33;;;;;;;9.10;5.53;;;15.70;77.40;;;;;;4980378;28;20035;-85
2021/05/20 11:48:02;;;;;;;8.77;6.88;;;15.90;74.90;;;;;;4980993;28;20510;-85
2021/05/20 11:50:29;;;;;;;9.30;7.30;;;16.00;75.10;;;;;;4967679;28;20046;-85
2021/05/20 11:52:56;;;;;;;9.30;7.35;;;16.10;73.30;;;;;;4982661;28;20048;-86
2021/05/20 11:55:24;;;;;;;12.32;8.10;;;16.10;71.70;;;;;;4969317;28;20500;-85
2021/05/20 11:58:03;;;;;;;8.32;5.88;;;16.00;71.50;;;;;;4980094;28;20031;-84
2021/05/20 12:00:29;;;;;;;6.53;5.57;;;16.00;68.90;;;;;;4982969;28;20292;-88
2021/05/20 12:02:56;;;;;;;7.60;5.90;;;16.10;70.10;;;;;;4969512;28;20109;-84
2021/05/20 12:05:25;;;;;;;10.23;6.20;;;16.20;69.20;;;;;;4987004;28;20049;-86
2021/05/20 12:07:51;;;;;;;9.13;7.15;;;16.30;68.40;;;;;;4991163;28;20544;-86
2021/05/20 12:10:22;;;;;;;9.73;6.93;;;16.30;69.70;;;;;;4967285;28;20034;-86
2021/05/20 12:13:01;;;;;;;13.68;7.38;;;16.40;69.90;;;;;;4991166;28;20041;-84
2021/05/20 12:15:29;;;;;;;8.75;6.75;;;16.60;69.60;;;;;;4984865;28;20033;-86
2021/05/20 12:18:00;;;;;;;9.73;6.90;;;16.50;67.70;;;;;;4981082;28;20062;-88
2021/05/20 12:20:27;;;;;;;9.85;7.32;;;16.40;67.00;;;;;;4954318;28;20493;-86
2021/05/20 12:22:54;;;;;;;10.65;7.57;;;16.40;68.50;;;;;;4970628;28;20044;-86
2021/05/20 12:25:22;;;;;;;14.35;9.65;;;16.30;69.20;;;;;;4971638;28;20042;-88
2021/05/20 12:27:55;;;;;;;12.85;9.38;;;16.30;70.00;;;;;;4983359;28;20042;-85
2021/05/20 12:30:34;;;;;;;12.45;9.57;;;16.20;70.60;;;;;;4982062;28;20410;-85
2021/05/20 12:33:03;;;;;;;15.55;11.55;;;16.20;71.10;;;;;;4971653;28;20076;-86
2021/05/20 12:35:30;;;;;;;14.30;11.73;;;16.10;72.40;;;;;;4982469;28;20311;-86
2021/05/20 12:38:11;;;;;;;18.95;13.18;;;16.00;72.80;;;;;;4988227;28;20061;-86
2021/05/20 12:40:41;;;;;;;16.10;12.35;;;16.00;73.70;;;;;;4986949;28;20036;-87
2021/05/20 12:43:32;;;;;;;15.90;11.38;;;16.00;75.00;;;;;;4985181;28;20294;-86
2021/05/20 12:46:13;;;;;;;17.73;12.75;;;15.90;74.40;;;;;;4989718;28;20045;-85
2021/05/20 12:48:43;;;;;;;25.92;12.98;;;16.00;74.80;;;;;;4965758;28;20054;-84
2021/05/20 12:51:18;;;;;;;15.77;12.05;;;16.10;74.80;;;;;;4978156;28;20124;-84